createdAt,value
2023-03-29T00:00:16.838Z,4.22
2023-03-29T00:02:48.829Z,7.32
2023-03-29T00:05:17.769Z,2.45
2023-03-29T00:07:45.355Z,2.05
2023-03-29T00:10:13.311Z,3.65
2023-03-29T00:12:42.122Z,3.45
2023-03-29T00:15:10.124Z,2.35
2023-03-29T00:17:37.866Z,5.28
2023-03-29T00:20:10.465Z,5.40
2023-03-29T00:22:39.901Z,2.67
2023-03-29T00:25:07.741Z,5.35
2023-03-29T00:27:35.209Z,5.97
2023-03-29T00:30:05.650Z,4.63
2023-03-29T00:32:34.147Z,5.35
2023-03-29T00:35:01.899Z,3.83
2023-03-29T00:37:30.453Z,4.75
2023-03-29T00:39:58.126Z,2.65
2023-03-29T00:42:26.239Z,6.88
2023-03-29T00:45:05.428Z,3.65
2023-03-29T00:50:07.113Z,1.90
2023-03-29T00:52:36.011Z,3.63
2023-03-29T00:55:10.257Z,5.38
2023-03-29T00:57:39.910Z,2.85
2023-03-29T01:00:12.078Z,5.55
2023-03-29T01:02:42.556Z,4.15
2023-03-29T01:05:15.352Z,1.73
2023-03-29T01:10:23.734Z,4.60
2023-03-29T01:12:56.477Z,3.55
2023-03-29T01:15:28.064Z,2.85
2023-03-29T01:17:58.322Z,3.58
2023-03-29T01:20:43.638Z,3.50
2023-03-29T01:23:33.548Z,4.47
2023-03-29T01:26:14.149Z,2.95
2023-03-29T01:28:47.109Z,4.03
2023-03-29T01:31:21.006Z,3.38
2023-03-29T01:33:52.290Z,4.55
2023-03-29T01:36:25.095Z,2.72
2023-03-29T01:38:57.225Z,3.63
2023-03-29T01:41:36.035Z,3.70
2023-03-29T01:44:10.230Z,4.75
2023-03-29T01:46:44.397Z,3.50
2023-03-29T01:49:17.168Z,3.33
2023-03-29T01:51:51.496Z,3.88
2023-03-29T01:54:24.700Z,2.05
2023-03-29T01:56:53.453Z,3.65
2023-03-29T01:59:26.383Z,2.35
2023-03-29T02:01:58.582Z,2.95
2023-03-29T02:04:31.588Z,2.33
2023-03-29T02:07:02.050Z,2.72
2023-03-29T02:09:30.404Z,4.63
2023-03-29T02:12:01.042Z,6.18
2023-03-29T02:14:30.576Z,6.65
2023-03-29T02:17:20.046Z,3.05
2023-03-29T02:19:53.534Z,2.40
2023-03-29T02:22:25.012Z,4.15
2023-03-29T02:24:59.444Z,3.25
2023-03-29T02:27:28.185Z,2.95
2023-03-29T02:29:57.391Z,2.63
2023-03-29T02:32:32.226Z,2.30
2023-03-29T02:35:04.836Z,4.97
2023-03-29T02:37:34.621Z,3.25
2023-03-29T02:40:12.738Z,5.15
2023-03-29T02:42:41.268Z,4.47
2023-03-29T02:45:14.525Z,7.50
2023-03-29T02:50:11.055Z,2.22
2023-03-29T02:52:43.372Z,1.60
2023-03-29T02:55:16.407Z,3.03
2023-03-29T02:57:44.255Z,2.88
2023-03-29T03:00:14.902Z,2.28
2023-03-29T03:02:43.152Z,3.45
2023-03-29T03:05:11.339Z,1.15
2023-03-29T03:07:40.693Z,3.17
2023-03-29T03:10:10.271Z,2.67
2023-03-29T03:12:39.682Z,2.78
2023-03-29T03:15:08.482Z,1.77
2023-03-29T03:17:40.533Z,1.83
2023-03-29T03:20:13.798Z,2.83
2023-03-29T03:22:45.719Z,1.33
2023-03-29T03:25:13.328Z,6.78
2023-03-29T03:27:41.460Z,4.68
2023-03-29T03:30:10.640Z,2.63
2023-03-29T03:32:51.192Z,7.75
2023-03-29T03:35:23.351Z,6.90
2023-03-29T03:37:51.677Z,3.85
2023-03-29T03:40:19.128Z,6.45
2023-03-29T03:42:46.996Z,4.65
2023-03-29T03:45:14.342Z,3.30
2023-03-29T03:47:56.308Z,2.10
2023-03-29T03:50:33.631Z,1.90
2023-03-29T03:53:01.615Z,3.13
2023-03-29T03:56:02.367Z,2.50
2023-03-29T03:58:35.748Z,3.65
2023-03-29T04:01:05.084Z,2.28
2023-03-29T04:03:41.339Z,5.55
2023-03-29T04:06:12.626Z,2.33
2023-03-29T04:08:58.245Z,5.90
2023-03-29T04:11:34.101Z,6.05
2023-03-29T04:14:01.809Z,6.43
2023-03-29T04:16:49.396Z,4.88
2023-03-29T04:19:38.081Z,4.18
2023-03-29T04:22:05.482Z,2.38
2023-03-29T04:24:33.192Z,0.85
2023-03-29T04:27:19.825Z,2.55
2023-03-29T04:29:48.257Z,4.60
2023-03-29T04:32:36.050Z,1.25
2023-03-29T04:35:10.391Z,2.35
2023-03-29T04:37:40.555Z,2.47
2023-03-29T04:40:15.079Z,4.10
2023-03-29T04:42:54.593Z,2.35
2023-03-29T04:45:22.251Z,3.95
2023-03-29T04:48:08.548Z,4.32
2023-03-29T04:50:40.212Z,3.35
2023-03-29T04:53:08.599Z,5.03
2023-03-29T04:55:36.374Z,5.03
2023-03-29T04:58:06.256Z,5.93
2023-03-29T05:00:39.938Z,1.33
2023-03-29T05:03:13.576Z,9.57
2023-03-29T05:05:52.039Z,2.90
2023-03-29T05:08:19.376Z,3.28
2023-03-29T05:11:24.522Z,1.85
2023-03-29T05:13:51.871Z,2.22
2023-03-29T05:16:20.860Z,14.60
2023-03-29T05:18:51.889Z,1.50
2023-03-29T05:21:22.191Z,1.75
2023-03-29T05:23:49.735Z,3.35
2023-03-29T05:26:17.007Z,4.22
2023-03-29T05:28:52.518Z,2.50
2023-03-29T05:31:20.550Z,3.88
2023-03-29T05:36:25.371Z,2.80
2023-03-29T05:38:54.003Z,3.33
2023-03-29T05:41:24.827Z,3.22
2023-03-29T05:44:15.684Z,1.77
2023-03-29T05:46:45.756Z,4.80
2023-03-29T05:49:16.950Z,2.33
2023-03-29T05:52:18.604Z,1.20
2023-03-29T05:54:46.575Z,7.30
2023-03-29T05:57:17.231Z,1.42
2023-03-29T05:59:45.131Z,2.22
2023-03-29T06:02:12.783Z,1.98
2023-03-29T06:04:45.562Z,1.35
2023-03-29T06:07:26.266Z,2.60
2023-03-29T06:10:12.473Z,1.13
2023-03-29T06:12:43.808Z,2.67
2023-03-29T06:15:13.392Z,2.10
2023-03-29T06:18:10.046Z,1.40
2023-03-29T06:20:38.429Z,1.00
2023-03-29T06:23:15.626Z,1.55
2023-03-29T06:25:44.765Z,2.08
2023-03-29T06:28:12.718Z,2.10
2023-03-29T06:30:41.015Z,2.63
2023-03-29T06:33:09.078Z,1.45
2023-03-29T06:36:02.266Z,3.15
2023-03-29T06:38:32.461Z,1.77
2023-03-29T06:41:23.814Z,2.50
2023-03-29T06:44:13.692Z,2.55
2023-03-29T06:47:04.476Z,1.38
2023-03-29T06:49:31.857Z,3.10
2023-03-29T06:52:27.415Z,3.22
2023-03-29T06:54:56.170Z,1.77
2023-03-29T06:57:25.523Z,3.13
2023-03-29T06:59:53.996Z,4.15
2023-03-29T07:02:34.167Z,3.50
2023-03-29T07:05:13.762Z,1.55
2023-03-29T07:08:05.786Z,1.88
2023-03-29T07:10:54.910Z,3.42
2023-03-29T07:13:42.099Z,1.02
2023-03-29T07:16:12.900Z,2.40
2023-03-29T07:19:04.097Z,1.67
2023-03-29T07:21:50.176Z,3.47
2023-03-29T07:24:19.375Z,2.05
2023-03-29T07:27:00.216Z,4.50
2023-03-29T07:29:31.224Z,2.22
2023-03-29T07:31:58.676Z,1.02
2023-03-29T07:34:55.826Z,3.80
2023-03-29T07:37:30.667Z,1.90
2023-03-29T07:40:00.512Z,1.60
2023-03-29T07:42:46.164Z,1.92
2023-03-29T07:45:18.091Z,2.75
2023-03-29T07:47:59.792Z,4.47
2023-03-29T07:50:33.597Z,3.05
2023-03-29T07:53:03.867Z,2.90
2023-03-29T07:55:33.045Z,4.47
2023-03-29T07:58:18.990Z,1.42
2023-03-29T08:00:46.320Z,3.70
2023-03-29T08:03:42.694Z,1.90
2023-03-29T08:06:10.186Z,1.77
2023-03-29T08:08:37.757Z,3.15
2023-03-29T08:11:12.282Z,1.58
2023-03-29T08:13:59.757Z,2.28
2023-03-29T08:16:27.356Z,6.85
2023-03-29T08:19:08.989Z,3.80
2023-03-29T08:21:52.208Z,1.75
2023-03-29T08:24:22.262Z,2.85
2023-03-29T08:26:54.946Z,2.08
2023-03-29T08:29:23.899Z,2.45
2023-03-29T08:31:51.304Z,1.35
2023-03-29T08:34:18.945Z,2.22
2023-03-29T08:37:12.181Z,2.28
2023-03-29T08:39:43.838Z,3.63
2023-03-29T08:43:13.152Z,2.58
2023-03-29T08:46:15.959Z,4.55
2023-03-29T08:48:48.841Z,2.75
2023-03-29T08:51:24.636Z,3.00
2023-03-29T08:53:56.621Z,4.97
2023-03-29T08:56:36.192Z,3.95
2023-03-29T08:59:15.199Z,3.97
2023-03-29T09:01:45.687Z,5.43
2023-03-29T09:04:18.983Z,3.42
2023-03-29T09:07:13.165Z,3.30
2023-03-29T09:09:44.431Z,1.25
2023-03-29T09:12:44.506Z,5.47
2023-03-29T09:15:16.352Z,6.15
2023-03-29T09:18:06.430Z,5.97
2023-03-29T09:20:42.732Z,1.15
2023-03-29T09:23:28.718Z,2.25
2023-03-29T09:26:23.980Z,2.88
2023-03-29T09:29:23.872Z,10.05
2023-03-29T09:31:53.473Z,5.43
2023-03-29T09:34:31.937Z,3.30
2023-03-29T09:37:11.425Z,6.80
2023-03-29T09:39:41.152Z,2.30
2023-03-29T09:42:14.428Z,3.72
2023-03-29T09:44:48.050Z,4.00
2023-03-29T09:47:25.011Z,4.75
2023-03-29T09:49:59.666Z,3.75
2023-03-29T09:52:27.416Z,4.57
2023-03-29T09:55:08.063Z,4.78
2023-03-29T09:57:53.580Z,3.40
2023-03-29T10:00:21.686Z,3.97
2023-03-29T10:02:52.868Z,6.32
2023-03-29T10:05:32.250Z,5.65
2023-03-29T10:08:01.666Z,3.65
2023-03-29T10:10:32.489Z,6.22
2023-03-29T10:13:01.588Z,2.60
2023-03-29T10:15:30.674Z,3.05
2023-03-29T10:18:00.257Z,6.47
2023-03-29T10:20:28.928Z,3.30
2023-03-29T10:22:58.830Z,3.03
2023-03-29T10:25:29.192Z,8.27
2023-03-29T10:28:04.425Z,7.70
2023-03-29T10:30:35.576Z,5.18
2023-03-29T10:33:03.509Z,4.78
2023-03-29T10:35:35.101Z,5.38
2023-03-29T10:38:07.928Z,2.75
2023-03-29T10:40:43.266Z,5.15
2023-03-29T10:43:21.376Z,8.23
2023-03-29T10:45:49.984Z,10.98
2023-03-29T10:48:18.008Z,6.55
2023-03-29T10:50:53.293Z,6.90
2023-03-29T10:53:25.598Z,2.05
2023-03-29T10:56:01.590Z,3.92
2023-03-29T10:58:42.351Z,7.03
2023-03-29T11:01:17.514Z,5.35
2023-03-29T11:04:01.043Z,8.90
2023-03-29T11:06:37.089Z,4.40
2023-03-29T11:09:15.690Z,10.38
2023-03-29T11:12:12.634Z,8.48
2023-03-29T11:14:54.555Z,7.07
2023-03-29T11:20:12.719Z,7.53
2023-03-29T11:22:49.400Z,5.93
2023-03-29T11:25:30.151Z,7.47
2023-03-29T11:28:05.813Z,3.38
2023-03-29T11:30:42.557Z,3.53
2023-03-29T11:33:22.303Z,7.28
2023-03-29T11:35:57.694Z,9.75
2023-03-29T11:38:33.026Z,4.60
2023-03-29T11:41:06.096Z,4.18
2023-03-29T11:43:38.598Z,5.35
2023-03-29T11:46:12.358Z,8.75
2023-03-29T11:48:47.580Z,11.63
2023-03-29T11:51:21.724Z,4.15
2023-03-29T11:53:57.149Z,5.78
2023-03-29T11:56:31.776Z,3.33
2023-03-29T11:59:07.594Z,5.55
2023-03-29T12:01:40.228Z,3.80
2023-03-29T12:04:11.409Z,5.00
2023-03-29T12:06:44.788Z,5.82
2023-03-29T12:09:25.664Z,3.80
2023-03-29T12:12:00.299Z,4.75
2023-03-29T12:14:36.324Z,4.40
2023-03-29T12:17:09.474Z,3.63
2023-03-29T12:19:43.625Z,4.93
2023-03-29T12:22:11.747Z,4.38
2023-03-29T12:24:47.747Z,7.63
2023-03-29T12:27:26.604Z,3.15
2023-03-29T12:30:16.573Z,6.20
2023-03-29T12:32:55.161Z,7.78
2023-03-29T12:35:59.157Z,5.10
2023-03-29T12:38:48.290Z,4.75
2023-03-29T12:41:38.469Z,6.25
2023-03-29T12:44:22.621Z,2.10
2023-03-29T12:46:59.571Z,5.38
2023-03-29T12:49:29.693Z,2.58
2023-03-29T12:51:59.286Z,5.47
2023-03-29T12:54:31.248Z,4.32
2023-03-29T12:57:01.807Z,10.48
2023-03-29T12:59:38.104Z,6.90
2023-03-29T13:02:33.280Z,3.75
2023-03-29T13:05:01.595Z,4.03
2023-03-29T13:07:43.616Z,4.10
2023-03-29T13:10:37.636Z,5.32
2023-03-29T13:13:17.354Z,2.72
2023-03-29T13:15:46.296Z,5.20
2023-03-29T13:18:34.039Z,2.97
2023-03-29T13:21:12.167Z,5.22
2023-03-29T13:23:52.054Z,5.00
2023-03-29T13:26:46.143Z,5.00
2023-03-29T13:29:51.922Z,2.20
2023-03-29T13:32:37.342Z,6.95
2023-03-29T13:35:15.846Z,4.40
2023-03-29T13:37:54.367Z,5.70
2023-03-29T13:40:31.893Z,3.85
2023-03-29T13:43:08.268Z,4.13
2023-03-29T13:45:37.174Z,3.20
2023-03-29T13:48:06.523Z,6.72
2023-03-29T13:50:37.804Z,2.53
2023-03-29T13:53:12.766Z,2.80
2023-03-29T13:55:47.567Z,1.60
2023-03-29T13:58:34.317Z,3.58
2023-03-29T14:01:07.636Z,4.70
2023-03-29T14:03:42.398Z,3.58
2023-03-29T14:06:12.847Z,4.28
2023-03-29T14:08:41.482Z,4.10
2023-03-29T14:11:19.989Z,4.50
2023-03-29T14:13:51.727Z,4.90
2023-03-29T14:16:22.325Z,4.03
2023-03-29T14:18:51.535Z,2.55
2023-03-29T14:21:20.698Z,3.85
2023-03-29T14:23:54.914Z,4.53
2023-03-29T14:26:24.920Z,4.30
2023-03-29T14:28:56.739Z,3.15
2023-03-29T14:31:26.622Z,5.15
2023-03-29T14:33:54.657Z,5.45
2023-03-29T14:36:23.365Z,3.63
2023-03-29T14:38:53.394Z,5.50
2023-03-29T14:41:23.194Z,7.78
2023-03-29T14:43:53.093Z,7.72
2023-03-29T14:46:21.723Z,10.93
2023-03-29T14:48:49.728Z,5.55
2023-03-29T14:51:17.289Z,5.18
2023-03-29T14:53:44.823Z,5.28
2023-03-29T14:56:18.320Z,5.20
2023-03-29T14:58:49.548Z,5.55
2023-03-29T15:01:20.592Z,5.30
2023-03-29T15:03:55.232Z,2.70
2023-03-29T15:06:24.180Z,7.05
2023-03-29T15:09:04.344Z,7.50
2023-03-29T15:11:34.545Z,5.50
2023-03-29T15:14:04.782Z,4.10
2023-03-29T15:16:33.900Z,4.72
2023-03-29T15:19:02.385Z,6.22
2023-03-29T15:21:32.417Z,5.22
2023-03-29T15:24:02.330Z,4.55
2023-03-29T15:26:32.161Z,4.72
2023-03-29T15:29:07.640Z,3.95
2023-03-29T15:31:41.928Z,7.70
2023-03-29T15:34:12.723Z,3.38
2023-03-29T15:36:42.364Z,2.95
2023-03-29T15:39:12.798Z,5.13
2023-03-29T15:41:40.243Z,6.63
2023-03-29T15:44:07.563Z,7.65
2023-03-29T15:46:35.154Z,8.00
2023-03-29T15:49:05.152Z,5.07
2023-03-29T15:51:32.471Z,4.70
2023-03-29T15:53:59.696Z,5.15
2023-03-29T15:56:27.210Z,4.30
2023-03-29T15:58:54.709Z,5.28
2023-03-29T16:01:37.666Z,3.35
2023-03-29T16:04:11.075Z,5.40
2023-03-29T16:06:38.692Z,4.53
2023-03-29T16:09:07.248Z,5.88
2023-03-29T16:11:35.454Z,7.10
2023-03-29T16:14:02.983Z,5.82
2023-03-29T16:16:30.477Z,9.02
2023-03-29T16:18:57.721Z,3.92
2023-03-29T16:21:27.376Z,6.90
2023-03-29T16:23:54.949Z,6.50
2023-03-29T16:26:23.083Z,6.50
2023-03-29T16:28:50.869Z,8.70
2023-03-29T16:31:20.560Z,8.57
2023-03-29T16:33:48.277Z,8.30
2023-03-29T16:36:15.655Z,8.10
2023-03-29T16:38:44.581Z,9.55
2023-03-29T16:41:15.219Z,9.93
2023-03-29T16:43:42.627Z,9.30
2023-03-29T16:46:10.782Z,9.90
2023-03-29T16:48:38.493Z,6.97
2023-03-29T16:51:07.179Z,9.23
2023-03-29T16:53:34.827Z,4.72
2023-03-29T16:56:08.793Z,15.43
2023-03-29T16:58:39.434Z,9.20
2023-03-29T17:01:09.870Z,9.52
2023-03-29T17:03:37.916Z,13.70
2023-03-29T17:06:06.900Z,10.45
2023-03-29T17:08:34.419Z,12.13
2023-03-29T17:11:03.343Z,9.38
2023-03-29T17:13:30.617Z,7.32
2023-03-29T17:15:58.191Z,11.88
2023-03-29T17:18:27.132Z,9.85
2023-03-29T17:20:57.142Z,7.55
2023-03-29T17:23:24.925Z,8.48
2023-03-29T17:25:56.080Z,10.38
2023-03-29T17:28:24.967Z,7.15
2023-03-29T17:30:52.481Z,3.60
2023-03-29T17:33:22.824Z,6.68
2023-03-29T17:35:50.345Z,7.20
2023-03-29T17:38:17.719Z,12.07
2023-03-29T17:40:51.583Z,10.00
2023-03-29T17:43:19.162Z,8.02
2023-03-29T17:45:53.015Z,5.50
2023-03-29T17:48:21.848Z,10.68
2023-03-29T17:50:49.255Z,9.32
2023-03-29T17:53:16.767Z,9.25
2023-03-29T17:55:44.143Z,10.68
2023-03-29T17:58:11.887Z,10.27
2023-03-29T18:00:39.333Z,8.55
2023-03-29T18:03:08.489Z,10.13
2023-03-29T18:05:36.301Z,5.32
2023-03-29T18:08:04.110Z,8.90
2023-03-29T18:10:31.396Z,10.15
2023-03-29T18:12:58.979Z,9.98
2023-03-29T18:15:26.421Z,10.27
2023-03-29T18:17:53.955Z,6.68
2023-03-29T18:20:23.026Z,10.50
2023-03-29T18:22:50.587Z,9.55
2023-03-29T18:25:18.405Z,10.15
2023-03-29T18:27:45.756Z,12.50
2023-03-29T18:30:14.118Z,10.57
2023-03-29T18:32:41.631Z,7.35
2023-03-29T18:35:10.035Z,9.63
2023-03-29T18:37:38.841Z,12.00
2023-03-29T18:40:08.451Z,11.90
2023-03-29T18:42:35.778Z,9.50
2023-03-29T18:45:04.457Z,10.98
2023-03-29T18:47:31.909Z,7.90
2023-03-29T18:49:59.325Z,8.25
2023-03-29T18:52:27.557Z,9.20
2023-03-29T18:54:56.287Z,11.02
2023-03-29T18:57:23.907Z,8.45
2023-03-29T18:59:51.312Z,11.77
2023-03-29T19:02:18.737Z,10.88
2023-03-29T19:04:46.244Z,12.90
2023-03-29T19:07:13.806Z,9.95
2023-03-29T19:09:41.931Z,11.80
2023-03-29T19:12:10.881Z,9.85
2023-03-29T19:14:38.248Z,12.98
2023-03-29T19:17:05.568Z,11.18
2023-03-29T19:19:33.023Z,15.30
2023-03-29T19:22:00.931Z,11.95
2023-03-29T19:24:28.642Z,17.90
2023-03-29T19:26:56.631Z,11.13
2023-03-29T19:29:26.272Z,16.13
2023-03-29T19:31:54.756Z,10.95
2023-03-29T19:34:24.077Z,16.48
2023-03-29T19:36:53.613Z,12.70
2023-03-29T19:39:21.702Z,6.82
2023-03-29T19:41:49.066Z,17.85
2023-03-29T19:44:17.008Z,4.80
2023-03-29T19:46:45.838Z,6.97
2023-03-29T19:49:13.941Z,12.45
2023-03-29T19:51:42.111Z,7.60
2023-03-29T19:54:13.140Z,15.57
2023-03-29T19:56:45.603Z,16.95
2023-03-29T19:59:15.149Z,6.88
2023-03-29T20:01:44.207Z,13.13
2023-03-29T20:04:14.046Z,13.75
2023-03-29T20:06:41.862Z,14.13
2023-03-29T20:09:11.456Z,12.98
2023-03-29T20:11:39.262Z,14.63
2023-03-29T20:14:10.378Z,16.42
2023-03-29T20:16:38.107Z,15.55
2023-03-29T20:19:08.362Z,14.98
2023-03-29T20:21:37.481Z,11.70
2023-03-29T20:24:06.003Z,8.82
2023-03-29T20:26:33.474Z,10.02
2023-03-29T20:29:02.014Z,11.48
2023-03-29T20:31:30.285Z,12.73
2023-03-29T20:33:57.726Z,16.42
2023-03-29T20:36:26.773Z,14.68
2023-03-29T20:38:56.540Z,11.35
2023-03-29T20:41:23.846Z,14.77
2023-03-29T20:43:58.578Z,17.67
2023-03-29T20:46:33.585Z,14.60
2023-03-29T20:49:01.524Z,13.20
2023-03-29T20:51:30.502Z,13.90
2023-03-29T20:54:03.505Z,14.57
2023-03-29T20:56:32.079Z,14.88
2023-03-29T20:58:59.447Z,11.48
2023-03-29T21:01:28.040Z,13.85
2023-03-29T21:03:55.903Z,10.40
2023-03-29T21:06:24.563Z,16.13
2023-03-29T21:08:52.732Z,15.13
2023-03-29T21:11:21.604Z,16.95
2023-03-29T21:13:49.019Z,17.75
2023-03-29T21:16:16.354Z,17.52
2023-03-29T21:18:43.892Z,20.02
2023-03-29T21:21:13.737Z,19.58
2023-03-29T21:23:41.067Z,12.75
2023-03-29T21:26:09.424Z,19.67
2023-03-29T21:28:38.331Z,23.40
2023-03-29T21:31:06.821Z,22.52
2023-03-29T21:33:34.950Z,21.70
2023-03-29T21:36:02.730Z,25.30
2023-03-29T21:38:30.043Z,20.75
2023-03-29T21:40:58.313Z,21.33
2023-03-29T21:43:25.993Z,22.25
2023-03-29T21:45:54.959Z,25.38
2023-03-29T21:48:22.391Z,20.73
2023-03-29T21:50:55.852Z,25.00
2023-03-29T21:53:23.407Z,23.98
2023-03-29T21:55:51.570Z,20.42
2023-03-29T21:58:19.325Z,21.85
2023-03-29T22:00:47.612Z,18.23
2023-03-29T22:03:16.846Z,26.55
2023-03-29T22:05:54.689Z,20.55
2023-03-29T22:08:26.413Z,23.60
2023-03-29T22:10:55.593Z,18.23
2023-03-29T22:13:24.116Z,18.00
2023-03-29T22:16:01.227Z,23.85
2023-03-29T22:18:42.491Z,18.98
2023-03-29T22:21:13.912Z,17.80
2023-03-29T22:23:42.385Z,14.32
2023-03-29T22:26:12.733Z,20.58
2023-03-29T22:28:40.808Z,25.17
2023-03-29T22:31:10.125Z,23.60
2023-03-29T22:33:38.988Z,27.05
2023-03-29T22:36:14.305Z,21.13
2023-03-29T22:38:41.830Z,17.20
2023-03-29T22:41:09.702Z,30.90
2023-03-29T22:43:37.318Z,21.45
2023-03-29T22:46:05.474Z,24.05
2023-03-29T22:48:33.584Z,25.55
2023-03-29T22:51:02.527Z,27.00
2023-03-29T22:53:29.989Z,26.73
2023-03-29T22:55:57.661Z,16.52
2023-03-29T22:58:25.298Z,27.55
2023-03-29T23:00:53.360Z,22.67
2023-03-29T23:03:20.786Z,30.65
2023-03-29T23:05:50.411Z,17.33
2023-03-29T23:08:19.427Z,26.58
2023-03-29T23:10:47.139Z,27.10
2023-03-29T23:13:20.031Z,20.40
2023-03-29T23:15:48.848Z,21.40
2023-03-29T23:18:18.336Z,25.02
2023-03-29T23:20:47.524Z,21.02
2023-03-29T23:23:15.683Z,22.60
2023-03-29T23:25:45.871Z,18.10
2023-03-29T23:28:13.203Z,23.98
2023-03-29T23:30:41.009Z,15.15
2023-03-29T23:33:10.580Z,19.92
2023-03-29T23:35:38.345Z,21.10
2023-03-29T23:38:05.757Z,24.13
2023-03-29T23:40:33.390Z,16.52
2023-03-29T23:43:04.271Z,23.92
2023-03-29T23:45:31.963Z,20.90
2023-03-29T23:47:59.209Z,19.40
2023-03-29T23:50:28.826Z,20.42
2023-03-29T23:52:56.366Z,16.25
2023-03-29T23:55:23.705Z,27.23
2023-03-29T23:57:51.323Z,25.65
